createdAt,value
2023-10-02T00:01:18.933Z,19.88
2023-10-02T00:03:49.956Z,19.74
2023-10-02T00:06:21.116Z,19.91
2023-10-02T00:08:53.266Z,19.80
2023-10-02T00:11:38.811Z,19.76
2023-10-02T00:14:20.664Z,19.86
2023-10-02T00:17:09.521Z,19.90
2023-10-02T00:19:40.190Z,19.70
2023-10-02T00:22:11.134Z,19.64
2023-10-02T00:24:43.465Z,19.67
2023-10-02T00:27:15.096Z,19.38
2023-10-02T00:29:53.333Z,19.82
2023-10-02T00:32:22.923Z,19.96
2023-10-02T00:34:52.691Z,19.67
2023-10-02T00:37:22.559Z,19.91
2023-10-02T00:39:54.036Z,19.79
2023-10-02T00:42:27.504Z,19.65
2023-10-02T00:44:59.196Z,19.59
2023-10-02T00:47:40.480Z,19.60
2023-10-02T00:50:12.150Z,19.64
2023-10-02T00:52:44.548Z,19.64
2023-10-02T00:55:16.718Z,19.78
2023-10-02T00:57:48.811Z,19.80
2023-10-02T01:00:20.646Z,19.80
2023-10-02T01:02:51.947Z,19.76
2023-10-02T01:05:31.685Z,19.60
2023-10-02T01:08:02.179Z,19.88
2023-10-02T01:10:33.431Z,19.44
2023-10-02T01:13:07.502Z,19.85
2023-10-02T01:15:49.392Z,19.85
2023-10-02T01:18:29.436Z,19.86
2023-10-02T01:21:01.070Z,19.71
2023-10-02T01:23:32.302Z,19.80
2023-10-02T01:26:02.912Z,19.99
2023-10-02T01:28:52.651Z,19.94
2023-10-02T01:31:41.722Z,20.02
2023-10-02T01:34:13.082Z,20.06
2023-10-02T01:36:43.810Z,19.96
2023-10-02T01:39:17.378Z,19.98
2023-10-02T01:41:54.286Z,19.90
2023-10-02T01:44:30.312Z,19.97
2023-10-02T01:47:00.348Z,19.63
2023-10-02T01:49:30.571Z,19.77
2023-10-02T01:52:03.929Z,19.49
2023-10-02T01:54:32.837Z,19.57
2023-10-02T01:57:06.377Z,20.06
2023-10-02T01:59:36.111Z,19.79
2023-10-02T02:02:14.413Z,19.52
2023-10-02T02:04:44.241Z,19.89
2023-10-02T02:07:14.226Z,19.85
2023-10-02T02:09:44.694Z,19.93
2023-10-02T02:12:16.618Z,20.02
2023-10-02T02:14:53.644Z,19.79
2023-10-02T02:17:26.620Z,19.99
2023-10-02T02:20:01.545Z,19.83
2023-10-02T02:22:35.349Z,20.01
2023-10-02T02:25:05.685Z,19.93
2023-10-02T02:27:37.032Z,19.97
2023-10-02T02:30:12.504Z,19.61
2023-10-02T02:32:46.560Z,20.07
2023-10-02T02:35:18.774Z,20.05
2023-10-02T02:37:52.116Z,20.08
2023-10-02T02:40:30.132Z,19.93
2023-10-02T02:43:15.178Z,19.62
2023-10-02T02:45:49.575Z,19.90
2023-10-02T02:48:21.273Z,19.85
2023-10-02T02:50:51.410Z,19.62
2023-10-02T02:53:25.341Z,19.93
2023-10-02T02:56:17.142Z,19.87
2023-10-02T02:58:50.033Z,19.70
2023-10-02T03:01:23.725Z,19.43
2023-10-02T03:03:52.914Z,19.86
2023-10-02T03:06:25.965Z,19.96
2023-10-02T03:08:56.016Z,19.92
2023-10-02T03:11:30.849Z,19.92
2023-10-02T03:14:14.412Z,19.80
2023-10-02T03:16:47.412Z,19.86
2023-10-02T03:19:18.329Z,19.61
2023-10-02T03:21:48.977Z,20.09
2023-10-02T03:24:21.132Z,19.89
2023-10-02T03:26:54.608Z,19.95
2023-10-02T03:29:24.913Z,19.96
2023-10-02T03:31:54.382Z,19.86
2023-10-02T03:34:29.866Z,19.74
2023-10-02T03:37:01.279Z,19.52
2023-10-02T03:39:52.109Z,19.51
2023-10-02T03:42:24.084Z,19.99
2023-10-02T03:44:58.122Z,20.05
2023-10-02T03:47:32.014Z,19.88
2023-10-02T03:50:04.240Z,19.83
2023-10-02T03:52:36.304Z,20.00
2023-10-02T03:55:16.381Z,19.72
2023-10-02T03:58:05.041Z,19.72
2023-10-02T04:00:44.909Z,19.94
2023-10-02T04:03:17.140Z,20.01
2023-10-02T04:05:46.729Z,19.93
2023-10-02T04:08:38.401Z,19.76
2023-10-02T04:11:13.762Z,20.14
2023-10-02T04:13:49.709Z,19.98
2023-10-02T04:16:33.397Z,20.16
2023-10-02T04:19:02.327Z,20.18
2023-10-02T04:21:35.555Z,19.75
2023-10-02T04:24:06.929Z,19.85
2023-10-02T04:26:37.699Z,19.77
2023-10-02T04:29:27.968Z,19.92
2023-10-02T04:32:20.577Z,19.63
2023-10-02T04:34:52.089Z,19.70
2023-10-02T04:37:24.120Z,19.55
2023-10-02T04:40:14.666Z,19.78
2023-10-02T04:43:16.733Z,19.35
2023-10-02T04:45:47.498Z,19.83
2023-10-02T04:48:19.479Z,19.97
2023-10-02T04:50:55.762Z,19.85
2023-10-02T04:53:27.807Z,19.94
2023-10-02T04:56:10.647Z,19.90
2023-10-02T04:58:41.671Z,19.82
2023-10-02T05:01:26.556Z,19.91
2023-10-02T05:03:56.979Z,19.92
2023-10-02T05:06:54.009Z,20.04
2023-10-02T05:09:34.211Z,19.79
2023-10-02T05:12:08.275Z,19.78
2023-10-02T05:14:49.607Z,19.95
2023-10-02T05:17:43.029Z,19.94
2023-10-02T05:20:18.357Z,19.97
2023-10-02T05:22:57.242Z,20.01
2023-10-02T05:25:29.131Z,19.64
2023-10-02T05:27:57.354Z,19.67
2023-10-02T05:30:31.509Z,19.64
2023-10-02T05:33:00.960Z,19.52
2023-10-02T05:35:33.718Z,19.81
2023-10-02T05:38:02.183Z,19.72
2023-10-02T05:40:44.228Z,19.81
2023-10-02T05:43:19.176Z,20.06
2023-10-02T05:45:54.525Z,19.85
2023-10-02T05:48:39.449Z,19.99
2023-10-02T05:51:13.886Z,19.43
2023-10-02T05:53:55.117Z,20.03
2023-10-02T05:56:26.773Z,20.00
2023-10-02T05:59:06.265Z,19.90
2023-10-02T06:01:37.463Z,20.04
2023-10-02T06:04:08.445Z,19.72
2023-10-02T06:06:42.827Z,19.86
2023-10-02T06:09:17.954Z,19.89
2023-10-02T06:12:07.262Z,20.04
2023-10-02T06:14:41.405Z,19.89
2023-10-02T06:17:19.137Z,19.97
2023-10-02T06:20:03.036Z,19.96
2023-10-02T06:22:49.301Z,20.14
2023-10-02T06:25:21.936Z,19.76
2023-10-02T06:27:51.320Z,19.98
2023-10-02T06:30:20.207Z,19.86
2023-10-02T06:32:56.519Z,20.25
2023-10-02T06:35:30.336Z,20.08
2023-10-02T06:38:19.186Z,19.79
2023-10-02T06:40:58.368Z,20.33
2023-10-02T06:43:32.189Z,20.22
2023-10-02T06:46:16.068Z,20.36
2023-10-02T06:48:49.959Z,20.33
2023-10-02T06:51:23.225Z,20.13
2023-10-02T06:54:08.694Z,20.45
2023-10-02T06:56:38.005Z,20.33
2023-10-02T06:59:10.208Z,20.34
2023-10-02T07:02:01.770Z,20.52
2023-10-02T07:04:31.955Z,20.16
2023-10-02T07:07:04.730Z,20.40
2023-10-02T07:09:38.499Z,20.32
2023-10-02T07:12:16.418Z,20.30
2023-10-02T07:14:47.888Z,20.31
2023-10-02T07:17:20.728Z,20.42
2023-10-02T07:19:51.594Z,20.46
2023-10-02T07:22:26.470Z,20.26
2023-10-02T07:24:58.320Z,20.60
2023-10-02T07:27:27.826Z,20.42
2023-10-02T07:29:59.288Z,20.66
2023-10-02T07:32:36.286Z,20.40
2023-10-02T07:35:23.184Z,20.33
2023-10-02T07:38:09.731Z,20.37
2023-10-02T07:40:51.795Z,20.62
2023-10-02T07:43:28.953Z,20.26
2023-10-02T07:46:19.043Z,20.60
2023-10-02T07:49:00.149Z,20.88
2023-10-02T07:51:38.025Z,21.03
2023-10-02T07:54:10.133Z,20.74
2023-10-02T07:56:43.510Z,20.87
2023-10-02T07:59:12.913Z,20.87
2023-10-02T08:01:41.212Z,20.99
2023-10-02T08:04:08.584Z,20.94
2023-10-02T08:06:39.286Z,21.03
2023-10-02T08:09:38.409Z,20.62
2023-10-02T08:12:37.734Z,21.13
2023-10-02T08:15:28.044Z,21.16
2023-10-02T08:18:07.003Z,21.24
2023-10-02T08:20:45.345Z,21.08
2023-10-02T08:23:23.585Z,20.77
2023-10-02T08:26:22.930Z,20.81
2023-10-02T08:29:02.360Z,20.45
2023-10-02T08:31:34.688Z,20.66
2023-10-02T08:34:37.590Z,21.18
2023-10-02T08:37:12.783Z,20.56
2023-10-02T08:39:55.014Z,21.09
2023-10-02T08:42:28.439Z,21.22
2023-10-02T08:45:02.108Z,21.23
2023-10-02T08:47:30.732Z,21.00
2023-10-02T08:50:09.652Z,20.79
2023-10-02T08:52:50.237Z,20.44
2023-10-02T08:55:53.253Z,20.92
2023-10-02T08:58:23.877Z,20.65
2023-10-02T09:01:18.214Z,20.90
2023-10-02T09:04:17.332Z,20.99
2023-10-02T09:06:46.470Z,21.12
2023-10-02T09:09:28.409Z,21.22
2023-10-02T09:12:06.879Z,21.28
2023-10-02T09:22:25.434Z,21.05
2023-10-02T09:26:26.392Z,21.36
2023-10-02T09:29:30.004Z,21.39
2023-10-02T09:40:59.566Z,21.49
2023-10-02T09:43:47.153Z,20.80
2023-10-02T09:46:22.353Z,20.67
2023-10-02T09:52:40.595Z,20.93
2023-10-02T09:55:26.056Z,21.21
2023-10-02T09:57:58.543Z,21.26
2023-10-02T10:04:10.163Z,20.82
2023-10-02T10:06:57.727Z,20.84
2023-10-02T10:10:00.581Z,20.58
2023-10-02T10:12:52.984Z,21.25
2023-10-02T10:15:33.394Z,21.17
2023-10-02T10:21:58.861Z,21.47
2023-10-02T10:25:22.522Z,21.38
2023-10-02T10:27:59.854Z,21.08
2023-10-02T10:45:49.798Z,21.30
2023-10-02T10:55:59.347Z,21.00
2023-10-02T10:58:32.942Z,21.50
2023-10-02T11:01:04.175Z,21.18
2023-10-02T11:03:40.900Z,21.22
2023-10-02T11:06:12.151Z,21.66
2023-10-02T11:08:42.289Z,21.61
2023-10-02T11:11:23.584Z,21.23
2023-10-02T11:13:55.733Z,20.96
2023-10-02T11:16:38.028Z,21.20
2023-10-02T11:19:23.822Z,21.40
2023-10-02T11:22:17.435Z,21.55
2023-10-02T11:24:48.309Z,21.19
2023-10-02T11:27:18.451Z,21.39
2023-10-02T11:30:08.736Z,21.27
2023-10-02T11:32:55.998Z,21.19
2023-10-02T11:35:31.543Z,21.38
2023-10-02T11:38:02.757Z,21.41
2023-10-02T11:40:31.480Z,21.12
2023-10-02T11:43:04.364Z,21.19
2023-10-02T13:02:33.810Z,20.83
2023-10-02T13:05:15.300Z,21.77
2023-10-02T13:07:48.520Z,21.41
2023-10-02T13:10:17.658Z,21.53
2023-10-02T13:12:46.700Z,21.34
2023-10-02T13:15:17.253Z,21.38
2023-10-02T13:17:48.851Z,21.74
2023-10-02T13:20:18.585Z,21.56
2023-10-02T13:22:47.676Z,21.89
2023-10-02T13:25:19.544Z,21.67
2023-10-02T13:27:50.151Z,21.70
2023-10-02T13:30:27.860Z,21.60
2023-10-02T13:32:58.647Z,21.67
2023-10-02T13:35:28.299Z,21.41
2023-10-02T13:37:58.603Z,21.27
2023-10-02T13:40:33.511Z,21.46
2023-10-02T13:43:04.533Z,20.90
2023-10-02T13:45:33.207Z,21.41
2023-10-02T13:48:08.977Z,21.76
2023-10-02T13:50:56.757Z,21.76
2023-10-02T13:53:32.135Z,21.74
2023-10-02T13:56:05.330Z,21.49
2023-10-02T13:58:36.737Z,21.89
2023-10-02T14:01:08.248Z,21.69
2023-10-02T14:03:48.404Z,21.57
2023-10-02T14:06:18.669Z,21.58
2023-10-02T14:08:48.396Z,21.49
2023-10-02T14:11:19.449Z,21.57
2023-10-02T14:13:55.615Z,21.52
2023-10-02T14:16:25.753Z,21.33
2023-10-02T14:18:57.934Z,21.40
2023-10-02T14:21:31.248Z,21.14
2023-10-02T14:24:06.883Z,21.22
2023-10-02T14:26:39.560Z,21.11
2023-10-02T14:29:14.219Z,21.36
2023-10-02T14:31:49.201Z,21.56
2023-10-02T14:34:44.683Z,21.20
2023-10-02T14:37:21.298Z,21.76
2023-10-02T14:39:50.149Z,21.79
2023-10-02T14:42:20.902Z,21.40
2023-10-02T14:44:50.129Z,21.63
2023-10-02T14:47:19.825Z,21.51
2023-10-02T14:49:50.312Z,21.89
2023-10-02T14:52:19.452Z,21.87
2023-10-02T14:54:53.933Z,21.82
2023-10-02T14:57:24.109Z,21.99
2023-10-02T14:59:56.062Z,21.50
2023-10-02T15:02:33.846Z,21.65
2023-10-02T15:05:04.020Z,21.82
2023-10-02T15:07:32.425Z,21.64
2023-10-02T15:10:11.717Z,21.71
2023-10-02T15:12:40.821Z,21.71
2023-10-02T15:15:15.255Z,21.63
2023-10-02T15:17:44.889Z,21.44
2023-10-02T15:20:15.798Z,21.63
2023-10-02T15:22:45.625Z,21.51
2023-10-02T15:25:15.396Z,21.64
2023-10-02T15:27:45.142Z,21.56
2023-10-02T15:30:19.122Z,21.43
2023-10-02T15:32:49.365Z,21.41
2023-10-02T15:35:21.677Z,21.45
2023-10-02T15:37:52.217Z,21.14
2023-10-02T15:43:05.109Z,21.28
2023-10-02T15:45:38.340Z,20.70
2023-10-02T15:48:10.357Z,21.21
2023-10-02T15:50:41.947Z,21.31
2023-10-02T15:53:12.097Z,21.27
2023-10-02T15:55:40.752Z,21.40
2023-10-02T15:58:15.960Z,21.14
2023-10-02T16:00:47.083Z,21.19
2023-10-02T16:03:20.963Z,21.78
2023-10-02T16:05:51.934Z,21.96
2023-10-02T16:08:20.459Z,22.19
2023-10-02T16:11:04.472Z,22.02
2023-10-02T16:13:42.164Z,22.46
2023-10-02T16:16:14.732Z,21.97
2023-10-02T16:18:45.453Z,21.90
2023-10-02T16:24:47.982Z,21.57
2023-10-02T16:27:26.359Z,21.38
2023-10-02T16:30:24.916Z,21.06
2023-10-02T16:34:28.917Z,20.99
2023-10-02T16:36:44.414Z,20.52
2023-10-02T16:46:56.879Z,20.71
2023-10-02T16:50:03.838Z,20.66
2023-10-02T16:56:25.467Z,20.89
2023-10-02T17:01:49.875Z,20.75
2023-10-02T17:04:18.365Z,20.40
2023-10-02T17:06:46.737Z,20.55
2023-10-02T17:09:15.824Z,20.62
2023-10-02T17:11:44.111Z,20.49
2023-10-02T17:14:12.906Z,20.51
2023-10-02T17:16:41.368Z,20.21
2023-10-02T17:19:11.770Z,20.31
2023-10-02T17:21:40.493Z,19.85
2023-10-02T17:24:10.730Z,20.31
2023-10-02T17:26:39.501Z,20.31
2023-10-02T17:29:08.260Z,20.27
2023-10-02T17:31:36.697Z,19.87
2023-10-02T17:34:05.087Z,19.95
2023-10-02T17:36:34.958Z,20.13
2023-10-02T17:39:03.646Z,20.23
2023-10-02T17:41:32.113Z,19.93
2023-10-02T17:44:00.738Z,20.31
2023-10-02T17:46:29.294Z,20.16
2023-10-02T17:48:57.640Z,20.13
2023-10-02T17:51:27.059Z,20.22
2023-10-02T17:53:58.260Z,19.83
2023-10-02T17:56:26.942Z,20.19
2023-10-02T17:58:56.246Z,20.27
2023-10-02T18:01:24.666Z,20.37
2023-10-02T18:03:53.096Z,20.29
2023-10-02T18:06:21.606Z,20.06
2023-10-02T18:08:50.050Z,20.12
2023-10-02T18:11:26.138Z,20.01
2023-10-02T18:13:55.299Z,19.62
2023-10-02T18:16:23.772Z,20.09
2023-10-02T18:18:52.325Z,20.20
2023-10-02T18:21:21.532Z,20.09
2023-10-02T18:23:49.966Z,20.12
2023-10-02T18:26:20.071Z,19.62
2023-10-02T18:28:48.616Z,19.98
2023-10-02T18:31:17.085Z,19.98
2023-10-02T18:33:45.450Z,19.81
2023-10-02T18:36:13.817Z,20.23
2023-10-02T18:38:45.659Z,19.81
2023-10-02T18:41:14.195Z,19.78
2023-10-02T18:43:43.878Z,19.95
2023-10-02T18:46:12.194Z,19.54
2023-10-02T18:48:40.480Z,19.82
2023-10-02T18:51:18.478Z,19.91
2023-10-02T18:53:46.831Z,19.85
2023-10-02T18:56:26.364Z,19.80
2023-10-02T18:58:57.433Z,19.97
2023-10-02T19:02:32.389Z,19.06
2023-10-02T19:05:00.999Z,19.01
2023-10-02T19:10:26.448Z,19.90
2023-10-02T19:12:54.750Z,19.63
2023-10-02T19:15:24.858Z,19.55
2023-10-02T19:17:53.430Z,19.70
2023-10-02T19:20:24.828Z,19.86
2023-10-02T19:22:57.884Z,19.74
2023-10-02T19:25:26.255Z,19.93
2023-10-02T19:27:55.034Z,19.92
2023-10-02T19:31:00.079Z,19.45
2023-10-02T19:33:42.019Z,19.70
2023-10-02T19:36:14.788Z,19.88
2023-10-02T19:39:07.369Z,19.55
2023-10-02T19:41:35.843Z,19.28
2023-10-02T19:44:04.515Z,19.51
2023-10-02T19:47:12.257Z,19.21
2023-10-02T19:50:25.444Z,19.23
2023-10-02T19:52:54.668Z,19.56
2023-10-02T19:55:25.465Z,19.65
2023-10-02T19:57:55.312Z,19.58
2023-10-02T20:00:24.108Z,19.64
2023-10-02T20:02:54.545Z,19.29
2023-10-02T20:05:22.828Z,19.68
2023-10-02T20:07:51.171Z,19.21
2023-10-02T20:10:26.092Z,19.30
2023-10-02T20:12:54.692Z,19.56
2023-10-02T20:15:26.981Z,19.53
2023-10-02T20:17:57.577Z,19.47
2023-10-02T20:20:26.156Z,19.11
2023-10-02T20:22:54.635Z,19.34
2023-10-02T20:25:23.273Z,19.48
2023-10-02T20:27:52.471Z,19.13
2023-10-02T20:30:21.026Z,19.29
2023-10-02T20:32:50.434Z,19.40
2023-10-02T20:35:20.922Z,19.48
2023-10-02T20:37:49.997Z,19.40
2023-10-02T20:40:18.634Z,19.55
2023-10-02T20:42:47.118Z,19.47
2023-10-02T20:45:16.091Z,19.18
2023-10-02T20:47:44.368Z,19.32
2023-10-02T20:50:12.765Z,19.25
2023-10-02T20:52:43.474Z,19.08
2023-10-02T20:55:12.541Z,19.22
2023-10-02T20:57:41.734Z,19.02
2023-10-02T21:00:27.669Z,18.69
2023-10-02T21:02:57.879Z,18.39
2023-10-02T21:05:27.369Z,18.82
2023-10-02T21:07:58.128Z,19.01
2023-10-02T21:10:27.489Z,19.17
2023-10-02T21:12:57.716Z,19.03
2023-10-02T21:15:26.487Z,19.17
2023-10-02T21:17:56.369Z,18.81
2023-10-02T21:20:24.746Z,19.01
2023-10-02T21:22:55.997Z,19.15
2023-10-02T21:25:26.849Z,18.76
2023-10-02T21:27:55.943Z,18.65
2023-10-02T21:30:25.789Z,19.05
2023-10-02T21:32:54.666Z,18.86
2023-10-02T21:35:23.832Z,18.83
2023-10-02T21:37:53.166Z,18.60
2023-10-02T21:40:21.755Z,18.83
2023-10-02T21:42:52.492Z,18.91
2023-10-02T21:45:21.156Z,18.76
2023-10-02T21:47:51.745Z,18.66
2023-10-02T21:50:20.658Z,18.68
2023-10-02T21:52:54.272Z,18.69
2023-10-02T21:55:25.084Z,18.56
2023-10-02T21:57:55.520Z,18.86
2023-10-02T22:00:36.916Z,18.90
2023-10-02T22:03:07.747Z,19.02
2023-10-02T22:05:36.963Z,18.90
2023-10-02T22:08:06.056Z,18.99
2023-10-02T22:10:34.399Z,19.22
2023-10-02T22:13:04.643Z,18.86
2023-10-02T22:15:34.557Z,19.03
2023-10-02T22:18:04.623Z,19.17
2023-10-02T22:20:33.557Z,19.06
2023-10-02T22:23:05.000Z,18.86
2023-10-02T22:25:33.664Z,19.03
2023-10-02T22:28:03.598Z,18.83
2023-10-02T22:30:32.553Z,18.78
2023-10-02T22:33:01.247Z,19.01
2023-10-02T22:35:32.426Z,18.98
2023-10-02T22:38:01.845Z,18.60
2023-10-02T22:40:32.550Z,19.19
2023-10-02T22:43:02.075Z,19.15
2023-10-02T22:45:33.175Z,19.17
2023-10-02T22:48:01.961Z,18.64
2023-10-02T22:50:30.406Z,19.03
2023-10-02T22:52:59.630Z,19.12
2023-10-02T22:55:29.536Z,18.89
2023-10-02T22:57:59.990Z,19.05
2023-10-02T23:00:31.108Z,19.12
2023-10-02T23:03:01.250Z,18.49
2023-10-02T23:05:30.635Z,19.02
2023-10-02T23:08:00.216Z,19.03
2023-10-02T23:10:30.295Z,18.89
2023-10-02T23:12:59.636Z,19.13
2023-10-02T23:15:29.624Z,19.13
2023-10-02T23:17:58.437Z,18.42
2023-10-02T23:20:28.436Z,19.07
2023-10-02T23:22:56.794Z,18.87
2023-10-02T23:25:28.309Z,19.25
2023-10-02T23:27:57.377Z,19.19
2023-10-02T23:30:26.746Z,19.06
2023-10-02T23:32:57.733Z,19.13
2023-10-02T23:35:29.288Z,18.99
2023-10-02T23:37:59.042Z,18.82
2023-10-02T23:40:27.875Z,18.83
2023-10-02T23:43:01.831Z,18.78
2023-10-02T23:45:37.823Z,18.83
2023-10-02T23:48:14.331Z,18.87
2023-10-02T23:50:48.741Z,18.84
2023-10-02T23:53:26.392Z,19.02
2023-10-02T23:56:00.757Z,18.86
2023-10-02T23:58:29.812Z,18.94
